createdAt,value
2019-03-12T00:02:18.198Z,95.81
2019-03-12T00:04:49.269Z,95.99
2019-03-12T00:07:20.111Z,96.62
2019-03-12T00:09:53.625Z,96.49
2019-03-12T00:12:23.117Z,96.77
2019-03-12T00:14:53.546Z,97.28
2019-03-12T00:17:24.232Z,96.89
2019-03-12T00:19:54.832Z,96.82
2019-03-12T00:22:25.562Z,96.57
2019-03-12T00:24:56.297Z,96.77
2019-03-12T00:27:26.869Z,96.13
2019-03-12T00:29:57.673Z,95.99
2019-03-12T00:32:28.298Z,96.42
2019-03-12T00:34:59.023Z,96.84
2019-03-12T00:37:29.489Z,96.83
2019-03-12T00:39:59.947Z,96.67
2019-03-12T00:42:30.507Z,96.63
2019-03-12T00:45:00.976Z,96.78
2019-03-12T00:47:31.508Z,96.64
2019-03-12T00:50:02.041Z,97.00
2019-03-12T00:52:32.550Z,97.03
2019-03-12T00:55:03.694Z,97.48
2019-03-12T00:57:34.219Z,97.49
2019-03-12T01:00:05.626Z,97.55
2019-03-12T01:02:36.145Z,97.85
2019-03-12T01:05:07.078Z,97.21
2019-03-12T01:07:37.544Z,97.47
2019-03-12T01:10:10.166Z,97.80
2019-03-12T01:12:40.617Z,97.75
2019-03-12T01:15:11.641Z,97.61
2019-03-12T01:17:42.413Z,97.69
2019-03-12T01:20:13.835Z,98.03
2019-03-12T01:22:44.633Z,98.28
2019-03-12T01:25:15.368Z,97.78
2019-03-12T01:27:45.875Z,97.64
2019-03-12T01:30:17.553Z,97.68
2019-03-12T01:32:48.308Z,97.40
2019-03-12T01:35:18.782Z,97.39
2019-03-12T01:37:49.276Z,96.76
2019-03-12T01:40:19.735Z,96.17
2019-03-12T01:42:52.498Z,95.87
2019-03-12T01:45:22.396Z,95.68
2019-03-12T01:47:53.154Z,95.40
2019-03-12T01:50:23.612Z,95.05
2019-03-12T01:52:54.085Z,94.76
2019-03-12T01:55:24.563Z,94.67
2019-03-12T01:57:55.013Z,94.47
2019-03-12T02:00:26.062Z,94.34
2019-03-12T02:02:56.606Z,93.84
2019-03-12T02:05:27.155Z,93.40
2019-03-12T02:07:57.793Z,93.47
2019-03-12T02:10:28.263Z,93.72
2019-03-12T02:12:58.970Z,92.43
2019-03-12T02:15:29.466Z,92.09
2019-03-12T02:18:00.482Z,91.69
2019-03-12T02:20:31.002Z,90.60
2019-03-12T02:23:01.452Z,90.66
2019-03-12T02:25:31.952Z,89.92
2019-03-12T02:28:02.447Z,89.84
2019-03-12T02:30:33.391Z,90.56
2019-03-12T02:33:03.877Z,90.27
2019-03-12T02:35:34.380Z,89.42
2019-03-12T02:38:04.847Z,89.07
2019-03-12T02:40:35.356Z,88.63
2019-03-12T02:43:06.039Z,88.78
2019-03-12T02:45:36.497Z,88.18
2019-03-12T02:48:06.998Z,87.57
2019-03-12T02:50:37.477Z,87.37
2019-03-12T02:53:08.091Z,87.08
2019-03-12T02:55:39.007Z,87.12
2019-03-12T02:58:09.491Z,87.69
2019-03-12T03:00:40.245Z,87.98
2019-03-12T03:03:10.713Z,88.36
2019-03-12T03:06:03.420Z,88.07
2019-03-12T03:08:34.153Z,88.24
2019-03-12T03:11:04.659Z,88.24
2019-03-12T03:13:35.093Z,87.97
2019-03-12T03:16:06.106Z,87.31
2019-03-12T03:18:36.563Z,88.70
2019-03-12T03:21:07.111Z,88.43
2019-03-12T03:23:37.690Z,87.45
2019-03-12T03:26:08.169Z,87.81
2019-03-12T03:28:38.648Z,87.71
2019-03-12T03:31:09.140Z,88.27
2019-03-12T03:33:39.539Z,88.51
2019-03-12T03:36:09.995Z,88.39
2019-03-12T03:38:40.462Z,88.80
2019-03-12T03:41:11.215Z,88.02
2019-03-12T03:43:41.661Z,88.68
2019-03-12T03:46:12.212Z,89.16
2019-03-12T03:48:42.687Z,89.07
2019-03-12T03:51:13.173Z,89.45
2019-03-12T03:53:43.677Z,89.94
2019-03-12T03:56:14.228Z,90.59
2019-03-12T03:58:44.710Z,90.19
2019-03-12T04:01:15.536Z,90.18
2019-03-12T04:03:45.970Z,89.74
2019-03-12T04:06:16.473Z,90.49
2019-03-12T04:08:47.007Z,90.83
2019-03-12T04:11:17.711Z,91.12
2019-03-12T04:13:48.174Z,90.71
2019-03-12T04:16:18.711Z,91.28
2019-03-12T04:18:49.342Z,90.93
2019-03-12T04:21:19.843Z,90.93
2019-03-12T04:23:50.304Z,90.95
2019-03-12T04:26:21.054Z,90.73
2019-03-12T04:28:51.689Z,91.29
2019-03-12T04:31:22.252Z,90.58
2019-03-12T04:34:41.288Z,90.63
2019-03-12T04:37:12.188Z,90.29
2019-03-12T04:39:42.673Z,90.44
2019-03-12T04:42:13.422Z,91.39
2019-03-12T04:44:43.901Z,90.21
2019-03-12T04:47:14.383Z,90.11
2019-03-12T04:49:45.112Z,90.27
2019-03-12T04:52:15.616Z,90.13
2019-03-12T04:54:46.356Z,89.49
2019-03-12T04:57:16.811Z,89.59
2019-03-12T04:59:47.603Z,89.44
2019-03-12T05:02:18.085Z,89.45
2019-03-12T05:04:48.541Z,89.91
2019-03-12T05:07:19.404Z,89.82
2019-03-12T05:09:49.855Z,89.80
2019-03-12T05:12:20.326Z,89.48
2019-03-12T05:14:50.866Z,89.34
2019-03-12T05:17:27.737Z,89.50
2019-03-12T05:19:58.229Z,89.21
2019-03-12T05:22:28.614Z,89.19
2019-03-12T05:24:59.079Z,89.11
2019-03-12T05:27:29.940Z,89.35
2019-03-12T05:30:00.678Z,89.00
2019-03-12T05:32:31.205Z,88.83
2019-03-12T05:35:01.732Z,88.63
2019-03-12T05:37:32.185Z,88.22
2019-03-12T05:40:02.929Z,88.34
2019-03-12T05:42:33.418Z,88.54
2019-03-12T05:45:04.195Z,88.37
2019-03-12T05:47:34.953Z,89.04
2019-03-12T05:50:05.598Z,89.16
2019-03-12T05:52:36.065Z,89.16
2019-03-12T05:55:07.444Z,89.07
2019-03-12T05:57:37.925Z,89.67
2019-03-12T06:00:10.457Z,89.63
2019-03-12T06:02:40.985Z,90.12
2019-03-12T06:05:11.739Z,89.96
2019-03-12T06:07:42.486Z,89.83
2019-03-12T06:10:13.534Z,90.49
2019-03-12T06:12:44.067Z,90.60
2019-03-12T06:15:17.587Z,90.54
2019-03-12T06:17:48.341Z,90.62
2019-03-12T06:20:19.368Z,91.07
2019-03-12T06:22:50.298Z,90.70
2019-03-12T06:25:20.863Z,90.80
2019-03-12T06:27:51.446Z,90.57
2019-03-12T06:30:22.140Z,90.73
2019-03-12T06:33:00.066Z,90.82
2019-03-12T06:35:58.789Z,90.34
2019-03-12T06:38:46.659Z,90.10
2019-03-12T06:41:40.621Z,90.67
2019-03-12T06:44:28.478Z,90.59
2019-03-12T06:47:12.341Z,90.12
2019-03-12T06:50:02.838Z,90.55
2019-03-12T06:52:51.110Z,90.04
2019-03-12T06:55:49.300Z,90.06
2019-03-12T06:58:37.125Z,90.35
2019-03-12T07:01:32.126Z,89.91
2019-03-12T07:04:10.740Z,90.12
2019-03-12T07:06:54.484Z,90.01
2019-03-12T07:09:35.369Z,89.51
2019-03-12T07:12:14.285Z,88.93
2019-03-12T07:15:02.471Z,88.99
2019-03-12T07:17:48.958Z,89.35
2019-03-12T07:20:26.745Z,88.90
2019-03-12T07:23:16.356Z,88.48
2019-03-12T07:26:05.658Z,88.34
2019-03-12T07:28:50.673Z,88.37
2019-03-12T07:31:45.219Z,88.17
2019-03-12T07:34:40.313Z,87.58
2019-03-12T07:37:32.489Z,86.62
2019-03-12T07:40:22.236Z,86.35
2019-03-12T07:43:11.029Z,85.29
2019-03-12T07:46:00.370Z,84.96
2019-03-12T07:48:48.001Z,84.32
2019-03-12T07:51:42.159Z,83.75
2019-03-12T07:54:47.242Z,83.70
2019-03-12T07:57:33.868Z,83.11
2019-03-12T08:00:23.577Z,82.83
2019-03-12T08:03:11.317Z,83.11
2019-03-12T08:05:59.402Z,83.11
2019-03-12T08:08:47.196Z,82.27
2019-03-12T08:11:28.432Z,81.77
2019-03-12T08:14:32.959Z,81.16
2019-03-12T08:17:31.197Z,80.96
2019-03-12T08:20:10.809Z,80.39
2019-03-12T08:22:46.263Z,80.83
2019-03-12T08:25:38.704Z,80.49
2019-03-12T08:28:17.429Z,80.81
2019-03-12T08:31:16.252Z,80.11
2019-03-12T08:33:59.139Z,80.03
2019-03-12T08:36:48.691Z,79.07
2019-03-12T08:39:36.730Z,78.92
2019-03-12T08:42:32.046Z,78.57
2019-03-12T08:45:17.506Z,78.25
2019-03-12T08:48:05.227Z,77.70
2019-03-12T08:50:53.108Z,76.87
2019-03-12T08:53:40.984Z,76.30
2019-03-12T08:56:33.747Z,75.38
2019-03-12T08:59:25.907Z,75.25
2019-03-12T09:02:13.826Z,74.20
2019-03-12T09:05:02.767Z,74.09
2019-03-12T09:07:38.709Z,73.34
2019-03-12T09:10:31.391Z,72.44
2019-03-12T09:13:20.788Z,72.56
2019-03-12T09:16:06.180Z,72.93
2019-03-12T09:18:50.601Z,72.86
2019-03-12T09:21:42.271Z,72.28
2019-03-12T09:24:40.193Z,71.78
2019-03-12T09:27:29.621Z,71.65
2019-03-12T09:30:30.678Z,71.34
2019-03-12T09:33:10.567Z,71.10
2019-03-12T09:36:11.558Z,71.41
2019-03-12T09:38:53.133Z,71.65
2019-03-12T09:41:40.011Z,70.70
2019-03-12T09:44:32.233Z,70.01
2019-03-12T09:47:22.203Z,69.83
2019-03-12T09:49:57.264Z,70.06
2019-03-12T09:52:46.613Z,69.33
2019-03-12T09:55:38.718Z,69.87
2019-03-12T09:58:21.387Z,70.28
2019-03-12T10:00:58.328Z,69.54
2019-03-12T10:03:43.355Z,69.41
2019-03-12T10:06:31.432Z,68.91
2019-03-12T10:09:19.295Z,67.61
2019-03-12T10:12:00.338Z,67.06
2019-03-12T10:14:46.210Z,66.27
2019-03-12T10:17:34.559Z,65.55
2019-03-12T10:20:27.232Z,65.24
2019-03-12T10:23:04.116Z,64.99
2019-03-12T10:25:54.730Z,64.82
2019-03-12T10:28:46.941Z,64.30
2019-03-12T10:31:51.587Z,62.51
2019-03-12T10:34:53.188Z,61.55
2019-03-12T10:37:30.700Z,61.79
2019-03-12T10:40:23.733Z,61.18
2019-03-12T10:43:18.379Z,60.19
2019-03-12T10:46:08.043Z,59.94
2019-03-12T10:48:38.506Z,59.61
2019-03-12T10:51:09.020Z,59.56
2019-03-12T10:53:39.557Z,59.26
2019-03-12T10:56:10.042Z,59.22
2019-03-12T10:58:41.147Z,58.18
2019-03-12T11:01:11.730Z,58.78
2019-03-12T11:03:42.226Z,57.28
2019-03-12T11:06:12.998Z,57.17
2019-03-12T11:08:43.778Z,57.48
2019-03-12T11:11:14.388Z,57.83
2019-03-12T11:13:44.850Z,58.40
2019-03-12T11:16:15.368Z,58.88
2019-03-12T11:18:45.826Z,58.78
2019-03-12T11:21:16.252Z,59.23
2019-03-12T11:23:47.278Z,59.59
2019-03-12T11:26:17.654Z,59.08
2019-03-12T11:28:48.074Z,58.87
2019-03-12T11:31:18.791Z,58.95
2019-03-12T11:33:49.534Z,58.22
2019-03-12T11:36:20.292Z,59.25
2019-03-12T11:38:50.901Z,57.80
2019-03-12T11:41:21.588Z,57.78
2019-03-12T11:43:52.369Z,58.00
2019-03-12T11:46:23.425Z,57.54
2019-03-12T11:48:54.181Z,56.79
2019-03-12T11:51:24.917Z,56.32
2019-03-12T11:53:55.583Z,56.09
2019-03-12T11:56:26.685Z,56.16
2019-03-12T11:58:57.321Z,55.77
2019-03-12T12:01:28.188Z,55.91
2019-03-12T12:03:58.959Z,55.42
2019-03-12T12:06:29.902Z,55.64
2019-03-12T12:09:00.593Z,55.31
2019-03-12T12:11:31.153Z,54.65
2019-03-12T12:14:01.717Z,54.98
2019-03-12T12:16:32.664Z,54.98
2019-03-12T12:19:03.277Z,55.14
2019-03-12T12:21:34.096Z,55.07
2019-03-12T12:24:04.954Z,55.39
2019-03-12T12:26:35.562Z,54.95
2019-03-12T12:29:06.188Z,55.46
2019-03-12T12:31:36.851Z,54.72
2019-03-12T12:34:07.736Z,54.65
2019-03-12T12:36:38.448Z,54.65
2019-03-12T12:39:09.774Z,54.94
2019-03-12T12:41:40.362Z,53.36
2019-03-12T12:44:11.011Z,52.93
2019-03-12T12:46:41.779Z,52.33
2019-03-12T12:49:12.309Z,52.94
2019-03-12T12:51:42.844Z,53.23
2019-03-12T12:54:13.536Z,52.30
2019-03-12T12:56:44.150Z,52.56
2019-03-12T12:59:14.725Z,52.32
2019-03-12T13:01:45.303Z,52.58
2019-03-12T13:04:15.878Z,51.85
2019-03-12T13:06:46.518Z,51.89
2019-03-12T13:09:17.266Z,51.18
2019-03-12T13:11:48.057Z,51.56
2019-03-12T13:14:18.632Z,52.30
2019-03-12T13:16:49.505Z,51.47
2019-03-12T13:19:20.091Z,51.85
2019-03-12T13:21:50.674Z,51.97
2019-03-12T13:24:21.286Z,52.09
2019-03-12T13:26:51.886Z,51.73
2019-03-12T13:29:22.417Z,50.75
2019-03-12T13:31:53.085Z,50.46
2019-03-12T13:34:23.868Z,51.28
2019-03-12T13:36:54.316Z,51.85
2019-03-12T13:39:24.893Z,51.76
2019-03-12T13:41:55.409Z,52.31
2019-03-12T13:44:26.195Z,52.39
2019-03-12T13:46:56.831Z,52.04
2019-03-12T13:49:27.330Z,52.09
2019-03-12T13:51:57.877Z,52.13
2019-03-12T13:54:28.530Z,52.14
2019-03-12T13:56:58.987Z,52.66
2019-03-12T13:59:29.464Z,51.83
2019-03-12T14:02:00.269Z,51.69
2019-03-12T14:04:30.788Z,51.63
2019-03-12T14:07:01.556Z,51.13
2019-03-12T14:09:32.065Z,51.35
2019-03-12T14:12:02.946Z,51.54
2019-03-12T14:14:33.406Z,51.82
2019-03-12T14:17:04.189Z,51.99
2019-03-12T14:19:34.652Z,52.00
2019-03-12T14:22:08.957Z,51.49
2019-03-12T14:24:39.663Z,51.99
2019-03-12T14:27:10.128Z,51.53
2019-03-12T14:29:40.614Z,51.92
2019-03-12T14:32:12.243Z,52.14
2019-03-12T14:34:42.727Z,52.08
2019-03-12T14:37:13.242Z,51.99
2019-03-12T14:39:43.771Z,51.82
2019-03-12T14:42:14.494Z,50.82
2019-03-12T14:44:45.563Z,50.01
2019-03-12T14:47:16.030Z,49.75
2019-03-12T14:49:46.813Z,50.02
2019-03-12T14:52:34.818Z,50.40
2019-03-12T14:55:06.150Z,50.57
2019-03-12T14:57:36.609Z,50.97
2019-03-12T15:00:19.434Z,51.71
2019-03-12T15:02:50.315Z,51.98
2019-03-12T15:05:20.901Z,51.76
2019-03-12T15:07:51.416Z,51.79
2019-03-12T15:10:21.875Z,51.41
2019-03-12T15:12:52.336Z,51.90
2019-03-12T15:15:22.840Z,51.71
2019-03-12T15:17:53.567Z,51.53
2019-03-12T15:20:24.142Z,51.18
2019-03-12T15:22:54.985Z,51.40
2019-03-12T15:25:26.010Z,50.97
2019-03-12T15:27:56.498Z,50.48
2019-03-12T15:30:27.458Z,51.25
2019-03-12T15:32:58.206Z,50.56
2019-03-12T15:35:29.459Z,50.63
2019-03-12T15:38:00.379Z,50.49
2019-03-12T15:40:30.885Z,50.25
2019-03-12T15:43:01.587Z,50.33
2019-03-12T15:45:32.082Z,50.15
2019-03-12T15:48:02.777Z,50.67
2019-03-12T15:50:34.685Z,50.00
2019-03-12T15:53:05.634Z,49.91
2019-03-12T15:55:36.100Z,50.12
2019-03-12T15:58:06.556Z,49.53
2019-03-12T16:00:37.180Z,49.90
2019-03-12T16:03:07.703Z,49.63
2019-03-12T16:05:38.437Z,49.11
2019-03-12T16:08:09.046Z,49.28
2019-03-12T16:10:39.788Z,48.74
2019-03-12T16:13:10.577Z,48.42
2019-03-12T16:15:41.148Z,48.31
2019-03-12T16:18:14.459Z,48.39
2019-03-12T16:20:44.250Z,47.95
2019-03-12T16:23:15.356Z,48.21
2019-03-12T16:25:46.185Z,47.82
2019-03-12T16:28:16.647Z,48.18
2019-03-12T16:30:47.156Z,47.28
2019-03-12T16:33:18.657Z,47.21
2019-03-12T16:35:49.264Z,47.69
2019-03-12T16:38:20.087Z,47.16
2019-03-12T16:40:50.615Z,47.69
2019-03-12T16:43:22.277Z,47.59
2019-03-12T16:45:53.025Z,47.22
2019-03-12T16:48:23.512Z,47.00
2019-03-12T16:50:54.098Z,46.59
2019-03-12T16:53:24.725Z,46.43
2019-03-12T16:55:55.718Z,46.36
2019-03-12T16:58:26.279Z,46.47
2019-03-12T17:00:56.741Z,45.95
2019-03-12T17:03:27.316Z,45.88
2019-03-12T17:05:57.812Z,45.99
2019-03-12T17:08:28.551Z,46.13
2019-03-12T17:11:02.769Z,45.67
2019-03-12T17:13:32.100Z,45.81
2019-03-12T17:16:03.023Z,45.46
2019-03-12T17:18:34.171Z,45.22
2019-03-12T17:21:04.733Z,44.91
2019-03-12T17:23:35.677Z,45.52
2019-03-12T17:26:06.186Z,45.59
2019-03-12T17:28:37.186Z,45.78
2019-03-12T17:31:07.714Z,46.23
2019-03-12T17:33:38.337Z,46.02
2019-03-12T17:36:09.228Z,45.95
2019-03-12T17:38:46.740Z,45.84
2019-03-12T17:41:12.071Z,46.21
2019-03-12T17:43:42.958Z,46.30
2019-03-12T17:46:13.804Z,46.08
2019-03-12T17:48:44.354Z,46.54
2019-03-12T17:51:14.928Z,46.25
2019-03-12T17:53:45.486Z,46.47
2019-03-12T17:56:15.948Z,46.78
2019-03-12T17:58:46.555Z,46.83
2019-03-12T18:01:17.027Z,46.74
2019-03-12T18:03:47.499Z,46.70
2019-03-12T18:06:18.043Z,47.12
2019-03-12T18:08:48.614Z,47.17
2019-03-12T18:11:19.205Z,47.04
2019-03-12T18:13:49.840Z,46.79
2019-03-12T18:16:20.393Z,46.75
2019-03-12T18:18:50.868Z,46.89
2019-03-12T18:21:21.690Z,47.14
2019-03-12T18:23:52.259Z,46.83
2019-03-12T18:26:22.741Z,46.69
2019-03-12T18:28:53.630Z,46.92
2019-03-12T18:31:24.039Z,46.63
2019-03-12T18:33:54.635Z,46.89
2019-03-12T18:36:25.523Z,46.52
2019-03-12T18:38:56.082Z,46.47
2019-03-12T18:41:26.538Z,46.21
2019-03-12T18:43:57.296Z,46.36
2019-03-12T18:46:27.817Z,46.49
2019-03-12T18:48:58.350Z,46.77
2019-03-12T18:51:28.895Z,47.09
2019-03-12T18:53:59.431Z,46.66
2019-03-12T18:56:30.056Z,46.91
2019-03-12T18:59:00.866Z,46.98
2019-03-12T19:01:31.341Z,46.81
2019-03-12T19:04:02.057Z,46.80
2019-03-12T19:06:33.448Z,46.84
2019-03-12T19:09:05.583Z,46.97
2019-03-12T19:11:37.555Z,46.95
2019-03-12T19:14:08.351Z,46.74
2019-03-12T19:16:38.946Z,47.84
2019-03-12T19:19:09.536Z,49.65
2019-03-12T19:21:40.027Z,51.91
2019-03-12T19:24:10.747Z,52.02
2019-03-12T19:26:41.343Z,53.26
2019-03-12T19:29:12.123Z,52.27
2019-03-12T19:32:01.281Z,54.60
2019-03-12T19:34:33.786Z,55.35
2019-03-12T19:37:04.769Z,56.04
2019-03-12T19:39:35.996Z,56.53
2019-03-12T19:42:06.483Z,57.30
2019-03-12T19:44:37.157Z,57.76
2019-03-12T19:47:07.965Z,59.25
2019-03-12T19:49:38.468Z,58.66
2019-03-12T19:52:08.992Z,58.75
2019-03-12T19:54:39.827Z,61.13
2019-03-12T19:57:11.589Z,62.10
2019-03-12T19:59:42.576Z,61.23
2019-03-12T20:02:16.430Z,62.04
2019-03-12T20:04:47.668Z,62.44
2019-03-12T20:07:18.585Z,63.12
2019-03-12T20:10:50.182Z,65.23
2019-03-12T20:14:34.452Z,66.34
2019-03-12T20:18:08.253Z,69.07
2019-03-12T20:21:28.385Z,68.20
2019-03-12T20:25:18.893Z,67.40
2019-03-12T20:28:57.350Z,68.21
2019-03-12T20:32:11.031Z,67.19
2019-03-12T20:36:07.390Z,67.54
2019-03-12T20:40:08.337Z,67.79
2019-03-12T20:43:32.165Z,67.55
2019-03-12T20:47:14.051Z,67.69
2019-03-12T20:50:37.900Z,67.92
2019-03-12T20:54:13.323Z,68.55
2019-03-12T20:57:32.354Z,69.98
2019-03-12T21:01:28.040Z,71.41
2019-03-12T21:05:01.925Z,73.92
2019-03-12T21:08:37.642Z,76.06
2019-03-12T21:12:19.166Z,82.38
2019-03-12T21:15:52.599Z,93.48
2019-03-12T21:19:41.673Z,96.36
2019-03-12T21:23:23.832Z,98.52
2019-03-12T21:26:34.048Z,100.00
2019-03-12T21:29:48.322Z,100.00
2019-03-12T21:32:20.265Z,100.00
2019-03-12T21:34:51.305Z,100.00
2019-03-12T21:37:22.694Z,100.00
2019-03-12T21:39:56.188Z,100.00
2019-03-12T21:42:25.928Z,100.00
2019-03-12T21:44:56.676Z,100.00
2019-03-12T21:47:29.578Z,100.00
2019-03-12T21:50:00.549Z,100.00
2019-03-12T21:52:31.844Z,100.00
2019-03-12T21:55:02.615Z,100.00
2019-03-12T21:57:33.434Z,100.00
2019-03-12T22:00:04.161Z,100.00
2019-03-12T22:02:34.593Z,100.00
2019-03-12T22:05:05.224Z,100.00
2019-03-12T22:07:36.025Z,100.00
2019-03-12T22:10:07.723Z,100.00
2019-03-12T22:12:38.266Z,100.00
2019-03-12T22:15:09.695Z,100.00
2019-03-12T22:17:40.499Z,100.00
2019-03-12T22:20:11.675Z,100.00
2019-03-12T22:22:46.722Z,100.00
2019-03-12T22:25:17.481Z,100.00
2019-03-12T22:27:47.988Z,100.00
2019-03-12T22:30:21.218Z,99.37
2019-03-12T22:32:51.815Z,99.18
2019-03-12T22:35:22.335Z,99.65
2019-03-12T22:37:53.181Z,100.00
2019-03-12T22:40:24.026Z,99.49
2019-03-12T22:42:54.945Z,98.60
2019-03-12T22:45:28.723Z,98.49
2019-03-12T22:47:59.933Z,99.36
2019-03-12T22:50:30.694Z,100.00
2019-03-12T22:53:01.829Z,99.46
2019-03-12T22:55:32.700Z,98.85
2019-03-12T22:58:04.576Z,99.04
2019-03-12T23:00:40.299Z,99.64
2019-03-12T23:03:11.325Z,99.37
2019-03-12T23:05:42.108Z,98.02
2019-03-12T23:08:13.089Z,98.05
2019-03-12T23:10:43.754Z,97.66
2019-03-12T23:13:14.265Z,97.70
2019-03-12T23:15:44.914Z,98.12
2019-03-12T23:18:15.567Z,98.59
2019-03-12T23:20:46.188Z,98.50
2019-03-12T23:23:16.840Z,97.89
2019-03-12T23:25:48.430Z,97.84
2019-03-12T23:28:19.027Z,98.22
2019-03-12T23:30:49.819Z,97.81
2019-03-12T23:33:20.706Z,97.36
2019-03-12T23:35:51.424Z,96.43
2019-03-12T23:38:25.037Z,96.15
2019-03-12T23:40:55.946Z,96.41
2019-03-12T23:43:26.444Z,95.84
2019-03-12T23:45:57.063Z,96.36
2019-03-12T23:48:27.540Z,96.06
2019-03-12T23:50:58.015Z,96.03
2019-03-12T23:53:28.538Z,96.24
2019-03-12T23:55:59.075Z,96.34
2019-03-12T23:58:34.859Z,96.07
